Time;durP1;ratioP1;P1;durP2;ratioP2;P2;SDS_P1;SDS_P2;PMS_P1;PMS_P2;Temp;Humidity;BMP_temperature;BMP_pressure;BME280_temperature;BME280_humidity;BME280_pressure;Samples;Min_cycle;Max_cycle;Signal;HPM_P1;HPM_P2
2021/11/29 00:01:00;;;;;;;8.18;6.75;;;;;;;8.44;92.06;97866.52;1764315;79;20978;-54
2021/11/29 00:03:31;;;;;;;8.13;7.40;;;;;;;8.46;92.05;97868.14;1766295;79;21556;-53
2021/11/29 00:05:59;;;;;;;8.98;7.35;;;;;;;8.49;92.12;97856.35;1763588;79;20918;-55
2021/11/29 00:08:26;;;;;;;10.08;8.15;;;;;;;8.51;92.22;97857.08;1766355;79;21886;-54
2021/11/29 00:10:52;;;;;;;9.98;8.33;;;;;;;8.54;92.25;97850.17;1764915;79;20918;-54
2021/11/29 00:13:18;;;;;;;10.30;8.43;;;;;;;8.58;92.29;97843.64;1765298;79;21309;-54
2021/11/29 00:15:45;;;;;;;9.95;8.95;;;;;;;8.60;92.30;97841.69;1763900;79;21936;-54
2021/11/29 00:18:13;;;;;;;9.43;8.48;;;;;;;8.62;92.31;97833.92;1765874;79;20887;-54
2021/11/29 00:20:45;;;;;;;9.10;7.97;;;;;;;8.66;92.39;97830.55;1759462;79;21053;-55
2021/11/29 00:23:13;;;;;;;9.45;8.45;;;;;;;8.70;92.48;97832.03;1765274;79;21285;-54
2021/11/29 00:25:40;;;;;;;11.03;8.40;;;;;;;8.72;92.43;97822.06;1762190;79;21670;-55
2021/11/29 00:28:09;;;;;;;9.53;7.72;;;;;;;8.73;92.38;97826.46;1759583;79;21416;-56
2021/11/29 00:30:38;;;;;;;8.98;8.18;;;;;;;8.76;92.45;97819.55;1761307;79;21356;-55
2021/11/29 00:33:06;;;;;;;10.88;8.28;;;;;;;8.78;92.50;97818.07;1744455;79;21357;-55
2021/11/29 00:35:35;;;;;;;10.45;8.30;;;;;;;8.80;92.49;97808.09;1747442;80;20952;-54
2021/11/29 00:38:01;;;;;;;8.80;7.90;;;;;;;8.81;92.53;97803.97;1745202;80;20918;-54
2021/11/29 00:40:27;;;;;;;9.23;8.28;;;;;;;8.84;92.58;97795.71;1740699;80;20922;-53
2021/11/29 00:42:56;;;;;;;9.58;7.45;;;;;;;8.88;92.61;97793.64;1744154;79;21374;-54
2021/11/29 00:45:22;;;;;;;9.95;8.48;;;;;;;8.91;92.66;97791.61;1744817;80;21909;-54
2021/11/29 00:47:50;;;;;;;9.50;7.15;;;;;;;8.94;92.66;97780.63;1745778;80;20904;-54
2021/11/29 00:50:18;;;;;;;10.82;8.28;;;;;;;8.95;92.67;97768.94;1742042;80;20918;-54
2021/11/29 00:52:44;;;;;;;10.90;8.25;;;;;;;8.99;92.70;97766.42;1744060;80;21527;-54
2021/11/29 00:55:12;;;;;;;7.70;7.00;;;;;;;9.01;92.59;97770.34;1749006;80;20938;-53
2021/11/29 00:57:39;;;;;;;9.00;7.45;;;;;;;9.02;92.61;97770.20;1744915;80;21107;-54
2021/11/29 01:00:11;;;;;;;9.20;8.30;;;;;;;9.03;92.55;97769.23;1747178;80;20914;-54
2021/11/29 01:02:38;;;;;;;9.28;7.28;;;;;;;9.03;92.53;97773.26;1748874;80;20946;-54
2021/11/29 01:05:05;;;;;;;6.50;5.70;;;;;;;9.05;92.50;97771.81;1741490;80;20901;-54
2021/11/29 01:07:32;;;;;;;8.63;7.55;;;;;;;9.07;92.59;97764.03;1767219;79;22028;-54
2021/11/29 01:09:59;;;;;;;11.12;8.08;;;;;;;9.10;92.54;97744.99;1766583;79;21059;-54
2021/11/29 01:12:26;;;;;;;6.35;5.72;;;;;;;9.11;92.51;97746.70;1756659;79;21040;-54
2021/11/29 01:14:53;;;;;;;9.88;7.60;;;;;;;9.13;92.50;97746.60;1745274;80;21061;-54
2021/11/29 01:17:19;;;;;;;7.35;6.60;;;;;;;9.15;92.46;97737.96;1747342;80;21045;-54
2021/11/29 01:19:46;;;;;;;7.25;6.65;;;;;;;9.17;92.48;97739.19;1743035;80;21037;-54
2021/11/29 01:22:12;;;;;;;7.67;6.72;;;;;;;9.18;92.45;97732.38;1746496;80;21132;-53
2021/11/29 01:24:39;;;;;;;6.72;6.12;;;;;;;9.21;92.45;97730.78;1742690;80;21140;-53
2021/11/29 01:27:05;;;;;;;7.83;6.62;;;;;;;9.23;92.38;97728.84;1742434;80;21053;-54
2021/11/29 01:29:33;;;;;;;7.95;7.15;;;;;;;9.25;92.36;97731.42;1745968;80;21044;-53
2021/11/29 01:31:59;;;;;;;7.35;6.28;;;;;;;9.28;92.35;97727.14;1741169;80;22168;-54
2021/11/29 01:35:15;;;;;;;7.83;6.53;;;;;;;9.33;92.21;97716.94;1789110;78;22592;-55
2021/11/29 01:37:42;;;;;;;8.73;7.92;;;;;;;9.29;92.16;97704.70;1763111;79;21025;-54
2021/11/29 01:40:09;;;;;;;7.28;6.30;;;;;;;9.28;92.12;97705.67;1764909;79;21843;-54
2021/11/29 01:42:36;;;;;;;6.47;5.83;;;;;;;9.30;92.10;97699.70;1761446;79;20979;-54
2021/11/29 01:45:04;;;;;;;6.95;6.25;;;;;;;9.29;92.04;97700.67;1765959;79;21677;-54
2021/11/29 01:47:30;;;;;;;10.70;5.60;;;;;;;9.29;92.04;97704.22;1767704;79;21064;-54
2021/11/29 01:49:56;;;;;;;6.92;6.25;;;;;;;9.31;92.02;97697.40;1729333;81;21022;-54
2021/11/29 01:52:23;;;;;;;6.50;5.95;;;;;;;9.33;92.02;97694.12;1726655;81;22692;-55
2021/11/29 01:54:49;;;;;;;5.65;5.05;;;;;;;9.33;91.99;97698.14;1713520;82;21414;-54
2021/11/29 01:57:16;;;;;;;4.72;4.33;;;;;;;9.34;91.99;97685.09;1710620;82;21224;-53
2021/11/29 01:59:44;;;;;;;5.05;4.62;;;;;;;9.37;91.96;97691.06;1684280;82;21097;-54
2021/11/29 02:02:12;;;;;;;4.47;4.08;;;;;;;9.38;91.87;97678.50;1717569;82;22200;-54
2021/11/29 02:04:39;;;;;;;5.33;4.83;;;;;;;9.39;91.79;97673.50;1718377;82;22793;-54
2021/11/29 02:07:05;;;;;;;4.30;3.90;;;;;;;9.42;91.75;97675.97;1716986;82;20878;-55
2021/11/29 02:09:32;;;;;;;7.05;4.72;;;;;;;9.43;91.78;97667.80;1716977;82;22251;-55
2021/11/29 02:11:58;;;;;;;5.80;5.20;;;;;;;9.45;91.67;97663.14;1715195;82;21526;-55
2021/11/29 02:14:25;;;;;;;5.03;4.62;;;;;;;9.46;91.60;97670.72;1706531;81;21697;-54
2021/11/29 02:16:52;;;;;;;5.80;5.25;;;;;;;9.45;91.56;97662.28;1730404;81;23058;-55
2021/11/29 02:19:18;;;;;;;5.08;4.55;;;;;;;9.45;91.46;97651.55;1704689;83;21395;-55
2021/11/29 02:21:45;;;;;;;3.95;3.65;;;;;;;9.45;91.39;97652.89;1705730;83;21535;-55
2021/11/29 02:24:11;;;;;;;6.75;4.37;;;;;;;9.44;91.31;97656.05;1710186;83;20949;-55
2021/11/29 02:26:38;;;;;;;4.30;3.90;;;;;;;9.44;91.30;97654.72;1707382;83;21081;-55
2021/11/29 02:29:14;;;;;;;6.03;4.42;;;;;;;9.45;91.23;97654.23;1706220;83;21112;-55
2021/11/29 02:31:45;;;;;;;4.05;3.08;;;;;;;9.45;91.19;97652.89;1710892;82;21617;-56
2021/11/29 02:34:20;;;;;;;3.35;2.95;;;;;;;9.46;91.17;97651.44;1701939;83;21678;-54
2021/11/29 02:36:48;;;;;;;4.90;4.40;;;;;;;9.47;91.17;97641.55;1757609;80;21130;-55
2021/11/29 02:39:16;;;;;;;4.17;3.77;;;;;;;9.49;91.10;97630.21;1752990;80;21536;-55
2021/11/29 02:41:43;;;;;;;4.35;3.70;;;;;;;9.49;91.05;97625.70;1755398;80;21046;-54
2021/11/29 02:44:10;;;;;;;4.45;4.05;;;;;;;9.50;90.93;97626.55;1756325;80;20982;-53
2021/11/29 02:46:37;;;;;;;4.92;4.60;;;;;;;9.49;90.86;97626.19;1752625;80;21364;-55
2021/11/29 02:49:05;;;;;;;5.37;4.87;;;;;;;9.47;90.74;97624.09;1754385;80;20945;-54
2021/11/29 02:51:47;;;;;;;4.78;4.35;;;;;;;9.45;90.72;97626.03;1755592;80;21099;-55
2021/11/29 02:54:21;;;;;;;3.47;3.27;;;;;;;9.44;90.67;97617.64;1715980;82;21733;-54
2021/11/29 02:56:50;;;;;;;4.07;3.67;;;;;;;9.42;90.67;97616.41;1755137;80;21504;-54
2021/11/29 02:59:19;;;;;;;4.12;3.83;;;;;;;9.40;90.61;97611.64;1754978;80;21061;-54
2021/11/29 03:01:49;;;;;;;3.50;3.25;;;;;;;9.41;90.71;97609.81;1758600;79;20962;-54
2021/11/29 03:04:23;;;;;;;3.83;3.52;;;;;;;9.40;90.66;97606.27;1758515;80;21439;-55
2021/11/29 03:06:50;;;;;;;4.72;4.33;;;;;;;9.40;90.61;97591.98;1757015;80;21046;-54
2021/11/29 03:09:17;;;;;;;4.85;4.45;;;;;;;9.40;90.53;97587.95;1761075;80;20896;-55
2021/11/29 03:11:45;;;;;;;3.42;2.87;;;;;;;9.40;90.51;97586.13;1758783;80;20956;-55
2021/11/29 03:14:13;;;;;;;3.87;3.45;;;;;;;9.42;90.56;97585.53;1760747;80;20966;-55
2021/11/29 03:16:39;;;;;;;10.75;4.35;;;;;;;9.43;90.45;97576.50;1760603;80;21377;-54
2021/11/29 03:19:06;;;;;;;4.25;3.70;;;;;;;9.42;90.35;97577.47;1759089;80;21077;-54
2021/11/29 03:21:32;;;;;;;3.83;3.52;;;;;;;9.44;90.34;97571.98;1759747;80;21385;-56
2021/11/29 03:24:02;;;;;;;5.15;4.47;;;;;;;9.43;90.29;97564.42;1696529;82;21403;-54
2021/11/29 03:26:29;;;;;;;3.85;3.37;;;;;;;9.43;90.27;97548.80;1760472;80;21394;-56
2021/11/29 03:28:59;;;;;;;5.83;5.33;;;;;;;9.41;90.13;97540.85;1723792;81;20917;-55
2021/11/29 03:31:29;;;;;;;5.80;5.30;;;;;;;9.40;90.08;97536.45;1760445;80;21150;-54
2021/11/29 03:33:57;;;;;;;4.75;4.35;;;;;;;9.42;90.07;97536.34;1758183;80;20950;-55
2021/11/29 03:36:25;;;;;;;3.92;3.62;;;;;;;9.42;90.01;97546.59;1741769;80;22254;-55
2021/11/29 03:38:52;;;;;;;4.83;4.30;;;;;;;9.42;89.96;97537.20;1743344;80;22091;-54
2021/11/29 03:41:18;;;;;;;6.03;4.12;;;;;;;9.42;89.91;97537.68;1740158;80;21421;-54
2021/11/29 03:43:45;;;;;;;4.90;4.50;;;;;;;9.41;89.91;97534.14;1742486;80;21077;-56
2021/11/29 03:46:11;;;;;;;3.92;3.72;;;;;;;9.40;89.81;97529.74;1738960;80;20963;-54
2021/11/29 03:48:38;;;;;;;4.70;4.37;;;;;;;9.38;89.80;97534.38;1745636;80;20955;-55
2021/11/29 03:51:04;;;;;;;5.25;4.72;;;;;;;9.40;89.73;97531.56;1743465;80;20926;-54
2021/11/29 03:53:31;;;;;;;4.90;4.50;;;;;;;9.37;89.76;97519.72;1741738;80;20970;-55
2021/11/29 03:55:58;;;;;;;4.40;3.95;;;;;;;9.40;89.80;97522.17;1743116;80;22132;-55
2021/11/29 03:58:24;;;;;;;4.42;4.10;;;;;;;9.41;89.76;97524.74;1741470;80;21505;-54
2021/11/29 04:00:50;;;;;;;6.25;4.95;;;;;;;9.40;89.75;97518.14;1741575;80;21585;-54
2021/11/29 04:03:18;;;;;;;5.95;5.42;;;;;;;9.40;89.66;97510.09;1740884;80;21040;-53
2021/11/29 04:05:46;;;;;;;4.03;3.72;;;;;;;9.38;89.59;97515.58;1735089;80;21431;-55
2021/11/29 04:08:12;;;;;;;5.37;4.53;;;;;;;9.35;89.50;97505.09;1736459;80;21710;-55
2021/11/29 04:10:39;;;;;;;4.58;4.15;;;;;;;9.33;89.51;97507.04;1731256;80;21537;-55
2021/11/29 04:13:06;;;;;;;3.92;3.72;;;;;;;9.34;89.58;97491.79;1736526;80;21652;-55
2021/11/29 04:15:32;;;;;;;4.35;3.55;;;;;;;9.33;89.54;97482.02;1738811;80;21610;-55
2021/11/29 04:18:01;;;;;;;4.17;3.90;;;;;;;9.35;89.58;97478.73;1735578;80;23160;-54
2021/11/29 04:20:27;;;;;;;5.62;5.08;;;;;;;9.35;89.51;97479.59;1734568;80;21540;-53
2021/11/29 04:22:54;;;;;;;4.53;4.12;;;;;;;9.36;89.50;97481.27;1740452;80;21046;-53
2021/11/29 04:25:23;;;;;;;4.50;3.77;;;;;;;9.38;89.50;97472.61;1733186;80;21125;-55
2021/11/29 04:27:50;;;;;;;5.83;5.42;;;;;;;9.40;89.43;97476.53;1736364;80;21042;-55
2021/11/29 04:30:20;;;;;;;5.60;4.87;;;;;;;9.40;89.39;97485.44;1739030;80;21416;-54
2021/11/29 04:32:48;;;;;;;6.50;6.00;;;;;;;9.40;89.37;97488.61;1738786;80;21126;-54
2021/11/29 04:35:15;;;;;;;6.17;4.62;;;;;;;9.37;89.23;97477.61;1749014;80;22091;-55
2021/11/29 04:37:43;;;;;;;4.25;3.87;;;;;;;9.36;89.20;97481.76;1756105;80;21338;-54
2021/11/29 04:40:10;;;;;;;4.28;4.08;;;;;;;9.35;89.17;97474.70;1751408;80;21629;-55
2021/11/29 04:42:37;;;;;;;5.28;4.78;;;;;;;9.36;89.21;97472.36;1760041;80;20865;-54
2021/11/29 04:45:05;;;;;;;4.62;4.22;;;;;;;9.37;89.20;97471.39;1754106;79;21085;-55
2021/11/29 04:47:31;;;;;;;5.00;4.60;;;;;;;9.37;89.20;97462.84;1758503;80;21868;-54
2021/11/29 04:49:58;;;;;;;4.50;4.10;;;;;;;9.39;89.19;97456.88;1756665;80;21484;-55
2021/11/29 04:52:24;;;;;;;4.05;3.75;;;;;;;9.41;89.16;97454.08;1751675;79;21555;-55
2021/11/29 04:54:51;;;;;;;4.35;3.92;;;;;;;9.43;89.07;97462.87;1755060;80;22023;-55
2021/11/29 04:57:17;;;;;;;4.53;4.15;;;;;;;9.43;89.04;97460.19;1755627;80;21142;-53
2021/11/29 04:59:44;;;;;;;5.70;5.20;;;;;;;9.43;88.92;97458.36;1748599;80;21112;-55
2021/11/29 05:02:11;;;;;;;5.58;5.17;;;;;;;9.43;88.89;97462.87;1753478;80;21107;-54
2021/11/29 05:04:37;;;;;;;5.47;4.42;;;;;;;9.41;88.80;97460.30;1751881;80;21073;-55
2021/11/29 05:07:06;;;;;;;5.70;4.92;;;;;;;9.40;88.71;97453.22;1748886;80;21073;-56
2021/11/29 05:09:33;;;;;;;5.30;4.92;;;;;;;9.38;88.60;97461.02;1758328;80;21133;-54
2021/11/29 05:11:59;;;;;;;5.45;5.03;;;;;;;9.36;88.59;97451.73;1756365;80;21007;-54
2021/11/29 05:14:27;;;;;;;5.75;5.33;;;;;;;9.35;88.58;97450.55;1718828;82;21143;-55
2021/11/29 05:16:54;;;;;;;4.87;4.58;;;;;;;9.33;88.58;97435.89;1753869;80;21054;-56
2021/11/29 05:19:20;;;;;;;7.75;5.58;;;;;;;9.34;88.63;97432.23;1756795;80;21437;-55
2021/11/29 05:21:47;;;;;;;7.80;6.10;;;;;;;9.37;88.57;97433.80;1754894;80;21913;-56
2021/11/29 05:24:14;;;;;;;5.78;5.28;;;;;;;9.38;88.49;97431.48;1753553;80;21087;-55
2021/11/29 05:26:40;;;;;;;5.47;5.08;;;;;;;9.38;88.42;97422.09;1692435;83;21038;-55
2021/11/29 05:29:07;;;;;;;6.17;5.58;;;;;;;9.39;88.39;97421.11;1709267;83;22484;-55
2021/11/29 05:31:34;;;;;;;7.90;5.47;;;;;;;9.40;88.37;97421.48;1707101;82;21624;-55
2021/11/29 05:34:01;;;;;;;9.33;7.60;;;;;;;9.40;88.28;97430.88;1707664;83;21722;-54
2021/11/29 05:36:28;;;;;;;12.10;7.58;;;;;;;9.39;88.22;97434.05;1708298;83;21058;-55
2021/11/29 05:38:55;;;;;;;7.47;6.72;;;;;;;9.37;88.19;97431.12;1707916;83;21054;-55
2021/11/29 05:41:21;;;;;;;12.60;6.75;;;;;;;9.36;88.14;97450.39;1707688;83;21038;-55
2021/11/29 05:43:48;;;;;;;8.63;6.92;;;;;;;9.33;88.13;97446.63;1763186;80;21121;-55
2021/11/29 05:46:18;;;;;;;5.62;5.17;;;;;;;9.32;88.15;97445.41;1762785;79;21827;-55
2021/11/29 05:48:43;;;;;;;8.53;7.15;;;;;;;9.32;88.20;97439.55;1764271;79;21085;-55
2021/11/29 05:51:09;;;;;;;7.45;6.55;;;;;;;9.32;88.17;97436.02;1762619;80;21167;-55
2021/11/29 05:53:37;;;;;;;8.00;7.17;;;;;;;9.31;88.16;97428.93;1724986;82;22343;-56
2021/11/29 05:56:04;;;;;;;6.72;6.10;;;;;;;9.32;88.14;97433.33;1725808;82;22204;-55
2021/11/29 05:58:33;;;;;;;8.90;7.92;;;;;;;9.32;88.18;97426.13;1768771;80;21132;-54
2021/11/29 06:00:59;;;;;;;7.40;6.53;;;;;;;9.34;88.17;97435.41;1727068;82;21033;-54
2021/11/29 06:03:26;;;;;;;7.55;6.47;;;;;;;9.34;88.14;97421.98;1763971;80;21068;-56
2021/11/29 06:05:52;;;;;;;7.12;6.50;;;;;;;9.36;88.12;97432.94;1764118;79;21508;-55
2021/11/29 06:08:19;;;;;;;8.50;7.62;;;;;;;9.39;88.07;97427.34;1727584;82;21510;-55
2021/11/29 06:10:47;;;;;;;8.95;8.15;;;;;;;9.39;87.99;97417.95;1765676;80;22518;-55
2021/11/29 06:13:15;;;;;;;7.42;6.75;;;;;;;9.41;87.94;97420.52;1761703;80;22104;-55
2021/11/29 06:15:42;;;;;;;7.65;6.92;;;;;;;9.42;87.85;97423.56;1763968;80;21129;-55
2021/11/29 06:18:09;;;;;;;8.80;7.90;;;;;;;9.42;87.88;97428.45;1768515;80;20974;-55
2021/11/29 06:20:36;;;;;;;8.28;7.58;;;;;;;9.42;87.80;97419.53;1767246;80;21650;-56
2021/11/29 06:23:03;;;;;;;11.48;8.85;;;;;;;9.41;87.78;97416.48;1768427;80;21444;-56
2021/11/29 06:25:29;;;;;;;8.70;7.85;;;;;;;9.39;87.71;97422.45;1768264;79;20934;-55
2021/11/29 06:27:56;;;;;;;10.23;9.33;;;;;;;9.37;87.69;97413.66;1769192;80;20955;-54
2021/11/29 06:30:23;;;;;;;12.30;9.10;;;;;;;9.35;87.71;97413.81;1728498;82;20942;-53
2021/11/29 06:32:50;;;;;;;13.90;10.15;;;;;;;9.34;87.74;97421.98;1766939;80;20958;-55
2021/11/29 06:35:16;;;;;;;9.03;8.18;;;;;;;9.33;87.79;97414.42;1767852;80;21092;-56
2021/11/29 06:37:46;;;;;;;11.35;8.95;;;;;;;9.34;87.83;97413.45;1759523;80;20973;-55
2021/11/29 06:40:13;;;;;;;10.82;9.73;;;;;;;9.37;87.87;97394.87;1738646;80;20991;-55
2021/11/29 06:42:40;;;;;;;12.90;9.95;;;;;;;9.38;87.81;97387.19;1757828;80;21040;-55
2021/11/29 06:45:07;;;;;;;8.48;7.80;;;;;;;9.38;87.82;97384.50;1762369;80;20909;-56
2021/11/29 06:47:37;;;;;;;11.33;9.25;;;;;;;9.40;87.83;97371.81;1758230;80;20919;-56
2021/11/29 06:50:05;;;;;;;9.23;7.80;;;;;;;9.41;87.79;97382.44;1726672;82;21490;-55
2021/11/29 06:52:32;;;;;;;9.58;8.10;;;;;;;9.42;87.76;97374.75;1754883;80;21094;-54
2021/11/29 06:54:59;;;;;;;12.35;8.45;;;;;;;9.43;87.73;97364.37;1760768;80;21063;-55
2021/11/29 06:57:25;;;;;;;9.58;8.40;;;;;;;9.45;87.72;97358.85;1756953;80;21499;-54
2021/11/29 06:59:52;;;;;;;10.00;8.73;;;;;;;9.45;87.69;97362.39;1758877;80;21203;-56
2021/11/29 07:02:19;;;;;;;13.13;8.80;;;;;;;9.47;87.76;97349.70;1753793;80;21063;-56
2021/11/29 07:04:47;;;;;;;8.50;7.70;;;;;;;9.51;87.64;97335.55;1760605;79;21091;-55
2021/11/29 07:07:13;;;;;;;9.53;7.30;;;;;;;9.54;87.60;97326.37;1758538;80;21066;-54
2021/11/29 07:09:42;;;;;;;11.78;9.78;;;;;;;9.55;87.55;97320.02;1755215;80;21104;-55
2021/11/29 07:12:09;;;;;;;12.53;8.73;;;;;;;9.57;87.50;97322.95;1756646;80;21115;-55
2021/11/29 07:14:36;;;;;;;9.80;8.10;;;;;;;9.58;87.46;97312.58;1719454;82;21166;-55
2021/11/29 07:17:03;;;;;;;10.65;8.30;;;;;;;9.61;87.45;97307.45;1758400;80;21065;-56
2021/11/29 07:19:30;;;;;;;10.58;9.53;;;;;;;9.64;87.45;97328.66;1757066;80;21405;-55
2021/11/29 07:21:57;;;;;;;17.17;9.63;;;;;;;9.67;87.42;97327.94;1759017;80;21001;-55
2021/11/29 07:24:23;;;;;;;15.15;10.75;;;;;;;9.70;87.32;97318.75;1756313;80;22855;-55
2021/11/29 07:26:50;;;;;;;9.93;8.13;;;;;;;9.72;87.27;97319.48;1757864;80;21383;-55
2021/11/29 07:29:16;;;;;;;9.23;8.20;;;;;;;9.73;87.23;97315.33;1754462;80;21679;-56
2021/11/29 07:31:43;;;;;;;8.40;7.50;;;;;;;9.74;87.20;97308.13;1717454;82;21542;-56
2021/11/29 07:34:10;;;;;;;10.48;8.18;;;;;;;9.76;87.17;97306.17;1757465;80;21070;-55
2021/11/29 07:36:36;;;;;;;9.33;7.53;;;;;;;9.79;87.20;97302.72;1757493;80;21110;-53
2021/11/29 07:39:04;;;;;;;9.33;7.22;;;;;;;9.80;87.13;97296.37;1755315;80;21062;-55
2021/11/29 07:41:31;;;;;;;8.68;7.83;;;;;;;9.84;87.07;97295.63;1755449;80;21077;-55
2021/11/29 07:43:57;;;;;;;8.45;6.95;;;;;;;9.84;87.04;97293.80;1758832;80;21057;-53
2021/11/29 07:46:24;;;;;;;9.93;8.10;;;;;;;9.88;87.04;97301.95;1754236;80;21053;-55
2021/11/29 07:48:51;;;;;;;9.10;8.10;;;;;;;9.93;87.00;97294.00;1757088;80;21113;-53
2021/11/29 07:51:17;;;;;;;12.28;8.68;;;;;;;9.93;86.92;97288.14;1753690;80;22381;-54
2021/11/29 07:53:45;;;;;;;14.47;9.78;;;;;;;9.95;86.93;97274.58;1757050;80;21105;-56
2021/11/29 07:56:12;;;;;;;11.65;8.65;;;;;;;9.94;86.89;97278.25;1758598;80;21097;-53
2021/11/29 07:58:38;;;;;;;8.60;7.83;;;;;;;9.94;86.83;97284.97;1756335;80;21104;-54
2021/11/29 08:01:05;;;;;;;9.18;5.65;;;;;;;9.94;86.81;97280.94;1754773;80;21122;-55
2021/11/29 08:03:32;;;;;;;7.70;6.83;;;;;;;9.94;86.87;97273.73;1753914;80;21056;-54
2021/11/29 08:05:59;;;;;;;10.08;7.60;;;;;;;9.94;86.94;97274.22;1758131;80;21108;-54
2021/11/29 08:08:25;;;;;;;11.08;7.10;;;;;;;9.94;87.00;97272.38;1753547;80;21494;-55
2021/11/29 08:10:53;;;;;;;9.33;7.53;;;;;;;9.95;87.07;97261.14;1753048;80;21047;-54
2021/11/29 08:13:20;;;;;;;11.73;7.87;;;;;;;9.97;87.15;97265.88;1755482;80;21513;-54
2021/11/29 08:15:46;;;;;;;9.03;6.45;;;;;;;9.99;87.23;97246.45;1757387;80;21421;-55
2021/11/29 08:18:13;;;;;;;9.25;7.00;;;;;;;10.01;87.35;97240.46;1757203;80;21349;-55
2021/11/29 08:20:39;;;;;;;9.28;6.97;;;;;;;10.02;87.33;97228.73;1753128;80;21257;-56
2021/11/29 08:23:08;;;;;;;10.28;6.37;;;;;;;10.06;87.44;97240.41;1754010;80;21041;-54
2021/11/29 08:25:36;;;;;;;9.60;6.55;;;;;;;10.08;87.41;97228.19;1753085;80;21916;-56
2021/11/29 08:28:03;;;;;;;10.38;6.45;;;;;;;10.11;87.44;97221.22;1753276;80;21025;-55
2021/11/29 08:30:30;;;;;;;13.62;6.55;;;;;;;10.13;87.48;97207.98;1754465;80;21038;-56
2021/11/29 08:32:56;;;;;;;13.03;9.03;;;;;;;10.15;87.49;97191.73;1759566;80;21418;-56
2021/11/29 08:35:23;;;;;;;11.68;9.43;;;;;;;10.16;87.48;97193.44;1756356;80;21055;-56
2021/11/29 08:37:50;;;;;;;9.68;8.55;;;;;;;10.15;87.54;97186.36;1769639;80;21324;-54
2021/11/29 08:40:18;;;;;;;12.58;9.23;;;;;;;10.14;87.66;97176.09;1770273;80;21839;-55
2021/11/29 08:42:46;;;;;;;13.40;8.93;;;;;;;10.15;87.68;97171.57;1771966;80;20939;-55
2021/11/29 08:45:12;;;;;;;11.65;9.18;;;;;;;10.17;87.68;97158.40;1768911;79;21090;-54
2021/11/29 08:47:39;;;;;;;10.65;8.15;;;;;;;10.18;87.73;97155.22;1767178;80;21104;-54
2021/11/29 08:50:07;;;;;;;14.25;8.00;;;;;;;10.20;87.84;97150.08;1769564;80;22113;-55
2021/11/29 08:52:35;;;;;;;11.28;9.23;;;;;;;10.21;87.91;97138.80;1766806;80;21116;-55
2021/11/29 08:55:06;;;;;;;9.30;7.78;;;;;;;10.21;87.91;97131.59;1769800;80;21043;-55
2021/11/29 08:57:33;;;;;;;12.13;7.25;;;;;;;10.21;87.96;97122.18;1771983;80;21042;-55
2021/11/29 09:00:00;;;;;;;12.20;8.40;;;;;;;10.22;88.10;97120.34;1771793;80;21073;-54
2021/11/29 09:02:26;;;;;;;12.95;9.83;;;;;;;10.24;88.19;97117.03;1705200;82;21896;-55
2021/11/29 09:04:54;;;;;;;11.18;7.78;;;;;;;10.27;88.31;97106.02;1712133;83;21580;-54
2021/11/29 09:07:22;;;;;;;13.70;8.10;;;;;;;10.28;88.28;97103.70;1704878;83;20963;-56
2021/11/29 09:09:49;;;;;;;13.78;8.28;;;;;;;10.31;88.36;97089.95;1720258;82;20937;-55
2021/11/29 09:12:16;;;;;;;16.97;9.80;;;;;;;10.34;88.38;97095.07;1713738;82;21062;-56
2021/11/29 09:14:42;;;;;;;12.43;9.03;;;;;;;10.35;88.38;97093.23;1739160;82;21055;-54
2021/11/29 09:17:11;;;;;;;13.20;9.38;;;;;;;10.36;88.44;97089.07;1716524;82;20910;-54
2021/11/29 09:19:39;;;;;;;14.25;9.35;;;;;;;10.38;88.50;97091.10;1703677;83;20891;-56
2021/11/29 09:22:05;;;;;;;10.15;7.80;;;;;;;10.40;88.51;97086.94;1736942;81;20966;-54
2021/11/29 09:24:32;;;;;;;11.68;9.50;;;;;;;10.42;88.50;97074.22;1736691;81;20982;-55
2021/11/29 09:27:00;;;;;;;16.00;9.58;;;;;;;10.43;88.56;97075.43;1738387;81;21085;-55
2021/11/29 09:29:27;;;;;;;11.48;8.65;;;;;;;10.44;88.55;97066.87;1713950;82;20923;-54
2021/11/29 09:31:55;;;;;;;11.75;8.85;;;;;;;10.48;88.62;97069.13;1713206;82;20914;-54
2021/11/29 09:34:22;;;;;;;14.45;8.45;;;;;;;10.49;88.58;97053.84;1714331;82;21061;-55
2021/11/29 09:36:48;;;;;;;10.65;9.55;;;;;;;10.52;88.64;97051.74;1708730;82;20933;-55
2021/11/29 09:39:16;;;;;;;14.45;10.60;;;;;;;10.54;88.69;97045.73;1767370;80;20904;-55
2021/11/29 09:41:43;;;;;;;15.83;9.45;;;;;;;10.56;88.62;97034.81;1715628;82;20903;-55
2021/11/29 09:44:09;;;;;;;14.38;9.18;;;;;;;10.57;88.62;97030.64;1764520;80;20974;-54
2021/11/29 09:46:36;;;;;;;11.40;8.85;;;;;;;10.60;88.58;97018.77;1769860;79;20879;-55
2021/11/29 09:49:03;;;;;;;12.05;8.85;;;;;;;10.61;88.50;97011.05;1764944;80;21084;-55
2021/11/29 09:51:31;;;;;;;8.70;7.20;;;;;;;10.61;88.54;96997.11;1763536;80;21101;-56
2021/11/29 09:53:58;;;;;;;9.05;7.25;;;;;;;10.63;88.57;96987.03;1763118;80;21040;-55
2021/11/29 09:56:24;;;;;;;8.20;7.33;;;;;;;10.67;88.53;96978.69;1765694;80;22257;-55
2021/11/29 09:58:51;;;;;;;8.88;7.03;;;;;;;10.68;88.51;96979.91;1763607;80;21144;-56
2021/11/29 10:01:17;;;;;;;11.90;7.80;;;;;;;10.72;88.53;96965.16;1729019;82;21054;-56
2021/11/29 10:03:44;;;;;;;8.18;6.25;;;;;;;10.75;88.43;96960.00;1762505;80;21554;-56
2021/11/29 10:06:12;;;;;;;10.43;8.53;;;;;;;10.77;88.34;96952.64;1765006;80;21024;-56
2021/11/29 10:08:39;;;;;;;11.55;9.33;;;;;;;10.80;88.32;96946.98;1764394;79;21155;-56
2021/11/29 10:11:11;;;;;;;14.25;10.30;;;;;;;10.83;88.32;96943.98;1761529;79;21085;-56
2021/11/29 10:14:01;;;;;;;9.80;8.78;;;;;;;10.85;88.24;96950.94;1766927;80;21364;-55
2021/11/29 10:16:45;;;;;;;8.93;8.08;;;;;;;10.88;88.14;96956.53;1767720;79;21090;-55
2021/11/29 10:19:24;;;;;;;8.93;8.03;;;;;;;10.89;88.03;96954.17;1762931;80;21495;-55
2021/11/29 10:21:51;;;;;;;10.50;7.22;;;;;;;10.91;87.99;96953.53;1759134;80;21089;-55
2021/11/29 10:24:19;;;;;;;7.72;6.87;;;;;;;10.92;87.98;96938.59;1762699;79;21065;-56
2021/11/29 10:26:53;;;;;;;9.13;7.60;;;;;;;10.93;87.89;96935.41;1703590;82;22655;-53
2021/11/29 10:29:22;;;;;;;9.45;7.05;;;;;;;10.93;87.83;96936.75;1766398;80;22017;-54
2021/11/29 10:31:51;;;;;;;9.00;6.33;;;;;;;10.95;87.83;96930.25;1739709;80;21018;-55
2021/11/29 10:34:26;;;;;;;8.68;6.60;;;;;;;10.97;87.68;96923.38;1766028;80;20928;-55
2021/11/29 10:36:58;;;;;;;8.80;7.42;;;;;;;10.98;87.57;96927.25;1724920;82;20980;-56
2021/11/29 10:39:37;;;;;;;16.48;6.92;;;;;;;10.99;87.54;96916.84;1756697;80;21511;-54
2021/11/29 10:42:06;;;;;;;9.70;6.50;;;;;;;11.00;87.42;96914.50;1757859;80;21096;-55
2021/11/29 10:44:38;;;;;;;7.08;6.40;;;;;;;11.01;87.38;96915.34;1702460;82;20880;-54
2021/11/29 10:47:11;;;;;;;11.10;7.80;;;;;;;11.03;87.35;96911.17;1759614;80;21427;-55
2021/11/29 10:49:45;;;;;;;14.93;9.78;;;;;;;11.04;87.25;96909.69;1717687;82;21125;-55
2021/11/29 10:52:13;;;;;;;9.90;8.90;;;;;;;11.05;87.23;96907.84;1756690;80;21073;-54
2021/11/29 10:54:41;;;;;;;10.35;8.10;;;;;;;11.04;87.14;96906.99;1759484;80;21987;-55
2021/11/29 10:57:13;;;;;;;10.32;6.70;;;;;;;11.04;87.06;96895.38;1757893;80;21032;-55
2021/11/29 10:59:43;;;;;;;9.35;7.90;;;;;;;11.03;86.98;96898.56;1762130;80;20932;-54
2021/11/29 11:02:18;;;;;;;27.93;21.27;;;;;;;11.03;86.94;96903.09;1763047;80;20973;-54
2021/11/29 11:04:48;;;;;;;10.15;9.10;;;;;;;11.01;86.90;96891.13;1759614;80;21028;-55
2021/11/29 11:07:22;;;;;;;5.95;4.95;;;;;;;11.03;86.84;96891.84;1761073;80;21084;-54
2021/11/29 11:09:56;;;;;;;10.05;7.90;;;;;;;11.03;86.79;96882.91;1756903;80;21038;-54
2021/11/29 11:12:29;;;;;;;8.38;7.53;;;;;;;11.05;86.72;96886.31;1758554;80;21039;-56
2021/11/29 11:15:00;;;;;;;12.78;9.58;;;;;;;11.05;86.61;96883.13;1761323;80;21098;-54
2021/11/29 11:17:28;;;;;;;8.68;6.83;;;;;;;11.07;86.52;96856.03;1757291;80;21065;-54
2021/11/29 11:20:00;;;;;;;7.92;7.20;;;;;;;11.09;86.25;96860.28;1758830;80;21077;-55
2021/11/29 11:22:39;;;;;;;10.48;8.05;;;;;;;11.10;86.36;96859.30;1760350;80;20978;-55
2021/11/29 11:25:11;;;;;;;7.95;7.33;;;;;;;11.11;86.27;96847.53;1756825;80;21053;-54
2021/11/29 11:27:42;;;;;;;18.32;12.73;;;;;;;11.11;86.18;96838.11;1762827;80;20911;-55
2021/11/29 11:30:14;;;;;;;12.78;9.10;;;;;;;11.11;86.01;96826.50;1755958;80;21020;-55
2021/11/29 11:32:49;;;;;;;8.68;6.58;;;;;;;11.11;86.01;96826.50;1760420;80;21110;-56
2021/11/29 11:35:18;;;;;;;;;;;;;;;11.13;86.06;96817.28;1762301;80;20933;-55
2021/11/29 11:37:49;;;;;;;8.95;6.20;;;;;;;11.13;86.01;96801.14;1713199;82;20128;-55
2021/11/29 11:40:30;;;;;;;17.75;12.33;;;;;;;11.12;86.06;96790.02;1676490;85;21380;-55